sensor_id;sensor_type;location;lat;lon;timestamp;temperature;humidity
66213;SHT31;53015;50.046;8.238;2023-10-08T00:01:22;14.23;94.29
66213;SHT31;53015;50.046;8.238;2023-10-08T00:03:48;14.26;94.35
66213;SHT31;53015;50.046;8.238;2023-10-08T00:06:15;14.27;94.06
66213;SHT31;53015;50.046;8.238;2023-10-08T00:08:41;14.10;94.19
66213;SHT31;53015;50.046;8.238;2023-10-08T00:11:07;13.98;94.85
66213;SHT31;53015;50.046;8.238;2023-10-08T00:13:33;14.08;94.72
66213;SHT31;53015;50.046;8.238;2023-10-08T00:15:58;14.04;94.98
66213;SHT31;53015;50.046;8.238;2023-10-08T00:18:24;14.17;94.44
66213;SHT31;53015;50.046;8.238;2023-10-08T00:20:50;14.04;94.58
66213;SHT31;53015;50.046;8.238;2023-10-08T00:23:17;14.08;94.81
66213;SHT31;53015;50.046;8.238;2023-10-08T00:25:42;14.23;94.33
66213;SHT31;53015;50.046;8.238;2023-10-08T00:28:08;14.33;93.94
66213;SHT31;53015;50.046;8.238;2023-10-08T00:30:33;14.41;93.73
66213;SHT31;53015;50.046;8.238;2023-10-08T00:32:59;14.33;94.02
66213;SHT31;53015;50.046;8.238;2023-10-08T00:35:24;14.26;93.76
66213;SHT31;53015;50.046;8.238;2023-10-08T00:37:50;14.32;94.23
66213;SHT31;53015;50.046;8.238;2023-10-08T00:40:17;14.32;94.18
66213;SHT31;53015;50.046;8.238;2023-10-08T00:42:42;14.32;94.12
66213;SHT31;53015;50.046;8.238;2023-10-08T00:45:08;14.40;94.03
66213;SHT31;53015;50.046;8.238;2023-10-08T00:47:34;14.44;93.64
66213;SHT31;53015;50.046;8.238;2023-10-08T00:50:00;14.36;94.04
66213;SHT31;53015;50.046;8.238;2023-10-08T00:52:25;14.30;94.21
66213;SHT31;53015;50.046;8.238;2023-10-08T00:54:51;14.38;94.11
66213;SHT31;53015;50.046;8.238;2023-10-08T00:57:21;14.36;93.74
66213;SHT31;53015;50.046;8.238;2023-10-08T00:59:48;14.48;93.35
66213;SHT31;53015;50.046;8.238;2023-10-08T01:02:13;14.63;93.06
66213;SHT31;53015;50.046;8.238;2023-10-08T01:04:40;14.67;92.97
66213;SHT31;53015;50.046;8.238;2023-10-08T01:07:05;14.51;93.36
66213;SHT31;53015;50.046;8.238;2023-10-08T01:09:31;14.60;93.08
66213;SHT31;53015;50.046;8.238;2023-10-08T01:12:12;14.59;93.14
66213;SHT31;53015;50.046;8.238;2023-10-08T01:14:39;14.67;92.81
66213;SHT31;53015;50.046;8.238;2023-10-08T01:17:05;14.59;93.31
66213;SHT31;53015;50.046;8.238;2023-10-08T01:19:30;14.47;93.09
66213;SHT31;53015;50.046;8.238;2023-10-08T01:21:56;14.57;93.16
66213;SHT31;53015;50.046;8.238;2023-10-08T01:24:23;14.56;93.20
66213;SHT31;53015;50.046;8.238;2023-10-08T01:26:49;14.54;93.31
66213;SHT31;53015;50.046;8.238;2023-10-08T01:29:14;14.56;93.47
66213;SHT31;53015;50.046;8.238;2023-10-08T01:31:40;14.56;93.31
66213;SHT31;53015;50.046;8.238;2023-10-08T01:34:05;14.54;93.59
66213;SHT31;53015;50.046;8.238;2023-10-08T01:36:31;14.74;92.99
66213;SHT31;53015;50.046;8.238;2023-10-08T01:38:56;14.99;91.95
66213;SHT31;53015;50.046;8.238;2023-10-08T01:41:23;14.92;92.28
66213;SHT31;53015;50.046;8.238;2023-10-08T01:43:49;14.87;92.31
66213;SHT31;53015;50.046;8.238;2023-10-08T01:46:14;14.74;92.69
66213;SHT31;53015;50.046;8.238;2023-10-08T01:48:40;14.64;92.97
66213;SHT31;53015;50.046;8.238;2023-10-08T01:51:05;14.70;92.72
66213;SHT31;53015;50.046;8.238;2023-10-08T01:53:31;14.81;92.34
66213;SHT31;53015;50.046;8.238;2023-10-08T01:55:57;14.72;92.68
66213;SHT31;53015;50.046;8.238;2023-10-08T01:58:24;14.74;92.59
66213;SHT31;53015;50.046;8.238;2023-10-08T02:00:49;14.79;92.45
66213;SHT31;53015;50.046;8.238;2023-10-08T02:03:16;14.79;92.44
66213;SHT31;53015;50.046;8.238;2023-10-08T02:05:42;15.09;91.49
66213;SHT31;53015;50.046;8.238;2023-10-08T02:08:09;15.20;91.09
66213;SHT31;53015;50.046;8.238;2023-10-08T02:10:34;15.32;90.66
66213;SHT31;53015;50.046;8.238;2023-10-08T02:13:00;15.30;90.45
66213;SHT31;53015;50.046;8.238;2023-10-08T02:15:27;15.20;90.84
66213;SHT31;53015;50.046;8.238;2023-10-08T02:17:52;15.02;91.54
66213;SHT31;53015;50.046;8.238;2023-10-08T02:20:18;14.89;92.26
66213;SHT31;53015;50.046;8.238;2023-10-08T02:22:44;14.89;92.40
66213;SHT31;53015;50.046;8.238;2023-10-08T02:25:09;14.74;92.71
66213;SHT31;53015;50.046;8.238;2023-10-08T02:27:35;14.65;92.97
66213;SHT31;53015;50.046;8.238;2023-10-08T02:30:01;14.60;93.46
66213;SHT31;53015;50.046;8.238;2023-10-08T02:32:28;14.51;93.52
66213;SHT31;53015;50.046;8.238;2023-10-08T02:34:54;14.53;93.80
66213;SHT31;53015;50.046;8.238;2023-10-08T02:37:19;14.53;93.71
66213;SHT31;53015;50.046;8.238;2023-10-08T02:39:45;14.54;93.58
66213;SHT31;53015;50.046;8.238;2023-10-08T02:42:11;14.63;93.38
66213;SHT31;53015;50.046;8.238;2023-10-08T02:44:37;14.74;92.86
66213;SHT31;53015;50.046;8.238;2023-10-08T02:47:02;14.67;92.87
66213;SHT31;53015;50.046;8.238;2023-10-08T02:49:29;14.51;93.20
66213;SHT31;53015;50.046;8.238;2023-10-08T02:51:55;14.53;93.82
66213;SHT31;53015;50.046;8.238;2023-10-08T02:54:21;14.44;93.84
66213;SHT31;53015;50.046;8.238;2023-10-08T02:56:49;14.40;93.84
66213;SHT31;53015;50.046;8.238;2023-10-08T02:59:15;14.37;94.17
66213;SHT31;53015;50.046;8.238;2023-10-08T03:01:40;14.29;94.31
66213;SHT31;53015;50.046;8.238;2023-10-08T03:04:06;14.30;93.95
66213;SHT31;53015;50.046;8.238;2023-10-08T03:06:33;14.27;94.12
66213;SHT31;53015;50.046;8.238;2023-10-08T03:08:59;14.36;93.94
66213;SHT31;53015;50.046;8.238;2023-10-08T03:11:24;14.38;93.39
66213;SHT31;53015;50.046;8.238;2023-10-08T03:13:50;14.53;92.86
66213;SHT31;53015;50.046;8.238;2023-10-08T03:16:15;14.48;93.08
66213;SHT31;53015;50.046;8.238;2023-10-08T03:18:41;14.38;93.68
66213;SHT31;53015;50.046;8.238;2023-10-08T03:21:07;14.29;93.76
66213;SHT31;53015;50.046;8.238;2023-10-08T03:23:34;14.22;94.06
66213;SHT31;53015;50.046;8.238;2023-10-08T03:26:00;14.29;94.20
66213;SHT31;53015;50.046;8.238;2023-10-08T03:28:26;14.32;93.95
66213;SHT31;53015;50.046;8.238;2023-10-08T03:30:52;14.33;93.87
66213;SHT31;53015;50.046;8.238;2023-10-08T03:33:18;14.37;93.73
66213;SHT31;53015;50.046;8.238;2023-10-08T03:35:43;14.34;93.82
66213;SHT31;53015;50.046;8.238;2023-10-08T03:38:09;14.32;93.73
66213;SHT31;53015;50.046;8.238;2023-10-08T03:40:35;14.34;93.56
66213;SHT31;53015;50.046;8.238;2023-10-08T03:43:01;14.26;94.05
66213;SHT31;53015;50.046;8.238;2023-10-08T03:45:26;14.22;94.38
66213;SHT31;53015;50.046;8.238;2023-10-08T03:47:52;14.19;93.49
66213;SHT31;53015;50.046;8.238;2023-10-08T03:50:17;14.16;93.95
66213;SHT31;53015;50.046;8.238;2023-10-08T03:52:43;14.23;92.81
66213;SHT31;53015;50.046;8.238;2023-10-08T03:55:09;14.36;92.81
66213;SHT31;53015;50.046;8.238;2023-10-08T03:57:35;14.34;92.84
66213;SHT31;53015;50.046;8.238;2023-10-08T04:00:01;14.44;92.37
66213;SHT31;53015;50.046;8.238;2023-10-08T04:02:27;14.48;91.98
66213;SHT31;53015;50.046;8.238;2023-10-08T04:04:52;14.56;91.54
66213;SHT31;53015;50.046;8.238;2023-10-08T04:07:18;14.56;91.58
66213;SHT31;53015;50.046;8.238;2023-10-08T04:09:44;14.75;91.08
66213;SHT31;53015;50.046;8.238;2023-10-08T04:12:09;14.72;91.14
66213;SHT31;53015;50.046;8.238;2023-10-08T04:14:36;14.71;91.15
66213;SHT31;53015;50.046;8.238;2023-10-08T04:17:02;14.61;91.76
66213;SHT31;53015;50.046;8.238;2023-10-08T04:19:27;14.68;91.37
66213;SHT31;53015;50.046;8.238;2023-10-08T04:21:53;14.57;91.86
66213;SHT31;53015;50.046;8.238;2023-10-08T04:24:18;14.57;91.85
66213;SHT31;53015;50.046;8.238;2023-10-08T04:26:44;14.61;91.94
66213;SHT31;53015;50.046;8.238;2023-10-08T04:29:09;14.74;91.45
66213;SHT31;53015;50.046;8.238;2023-10-08T04:31:36;14.81;91.14
66213;SHT31;53015;50.046;8.238;2023-10-08T04:34:02;14.91;91.30
66213;SHT31;53015;50.046;8.238;2023-10-08T04:36:28;15.03;91.13
66213;SHT31;53015;50.046;8.238;2023-10-08T04:38:53;15.08;90.88
66213;SHT31;53015;50.046;8.238;2023-10-08T04:41:19;14.98;91.08
66213;SHT31;53015;50.046;8.238;2023-10-08T04:43:45;14.77;91.24
66213;SHT31;53015;50.046;8.238;2023-10-08T04:46:10;14.82;91.66
66213;SHT31;53015;50.046;8.238;2023-10-08T04:48:37;14.72;91.81
66213;SHT31;53015;50.046;8.238;2023-10-08T04:51:03;14.74;91.95
66213;SHT31;53015;50.046;8.238;2023-10-08T04:53:31;14.75;92.05
66213;SHT31;53015;50.046;8.238;2023-10-08T04:55:58;14.84;91.84
66213;SHT31;53015;50.046;8.238;2023-10-08T04:58:23;14.84;91.79
66213;SHT31;53015;50.046;8.238;2023-10-08T05:00:49;14.82;91.94
66213;SHT31;53015;50.046;8.238;2023-10-08T05:03:14;14.95;91.67
66213;SHT31;53015;50.046;8.238;2023-10-08T05:05:41;15.05;91.24
66213;SHT31;53015;50.046;8.238;2023-10-08T05:08:07;15.03;91.03
66213;SHT31;53015;50.046;8.238;2023-10-08T05:10:32;14.91;91.92
66213;SHT31;53015;50.046;8.238;2023-10-08T05:12:58;14.78;92.24
66213;SHT31;53015;50.046;8.238;2023-10-08T05:15:23;14.87;91.85
66213;SHT31;53015;50.046;8.238;2023-10-08T05:17:49;14.67;92.68
66213;SHT31;53015;50.046;8.238;2023-10-08T05:20:14;14.72;92.44
66213;SHT31;53015;50.046;8.238;2023-10-08T05:22:41;14.71;91.76
66213;SHT31;53015;50.046;8.238;2023-10-08T05:25:07;14.57;92.88
66213;SHT31;53015;50.046;8.238;2023-10-08T05:27:33;14.67;92.63
66213;SHT31;53015;50.046;8.238;2023-10-08T05:30:02;14.68;92.56
66213;SHT31;53015;50.046;8.238;2023-10-08T05:32:28;14.74;92.35
66213;SHT31;53015;50.046;8.238;2023-10-08T05:34:53;14.65;92.67
66213;SHT31;53015;50.046;8.238;2023-10-08T05:37:19;14.59;92.56
66213;SHT31;53015;50.046;8.238;2023-10-08T05:39:46;14.68;92.55
66213;SHT31;53015;50.046;8.238;2023-10-08T05:42:11;14.79;92.19
66213;SHT31;53015;50.046;8.238;2023-10-08T05:44:37;14.87;92.24
66213;SHT31;53015;50.046;8.238;2023-10-08T05:47:02;14.84;92.25
66213;SHT31;53015;50.046;8.238;2023-10-08T05:49:28;14.92;92.03
66213;SHT31;53015;50.046;8.238;2023-10-08T05:51:53;14.77;92.41
66213;SHT31;53015;50.046;8.238;2023-10-08T05:54:21;14.81;92.51
66213;SHT31;53015;50.046;8.238;2023-10-08T05:56:48;14.84;92.32
66213;SHT31;53015;50.046;8.238;2023-10-08T05:59:13;14.67;92.68
66213;SHT31;53015;50.046;8.238;2023-10-08T06:01:39;14.60;93.13
66213;SHT31;53015;50.046;8.238;2023-10-08T06:04:04;14.64;92.95
66213;SHT31;53015;50.046;8.238;2023-10-08T06:06:30;14.60;92.91
66213;SHT31;53015;50.046;8.238;2023-10-08T06:08:55;14.67;92.89
66213;SHT31;53015;50.046;8.238;2023-10-08T06:11:21;14.77;92.79
66213;SHT31;53015;50.046;8.238;2023-10-08T06:13:48;14.71;92.66
66213;SHT31;53015;50.046;8.238;2023-10-08T06:16:13;14.64;92.82
66213;SHT31;53015;50.046;8.238;2023-10-08T06:18:39;14.61;93.01
66213;SHT31;53015;50.046;8.238;2023-10-08T06:21:06;14.54;92.98
66213;SHT31;53015;50.046;8.238;2023-10-08T06:23:31;14.60;92.86
66213;SHT31;53015;50.046;8.238;2023-10-08T06:25:57;14.70;92.30
66213;SHT31;53015;50.046;8.238;2023-10-08T06:28:23;14.91;91.72
66213;SHT31;53015;50.046;8.238;2023-10-08T06:30:51;14.92;91.67
66213;SHT31;53015;50.046;8.238;2023-10-08T06:33:17;14.84;91.78
66213;SHT31;53015;50.046;8.238;2023-10-08T06:35:42;14.89;92.19
66213;SHT31;53015;50.046;8.238;2023-10-08T06:38:08;14.93;92.11
66213;SHT31;53015;50.046;8.238;2023-10-08T06:40:34;15.03;91.62
66213;SHT31;53015;50.046;8.238;2023-10-08T06:42:59;15.15;91.45
66213;SHT31;53015;50.046;8.238;2023-10-08T06:45:25;15.32;91.44
66213;SHT31;53015;50.046;8.238;2023-10-08T06:47:51;15.32;91.19
66213;SHT31;53015;50.046;8.238;2023-10-08T06:50:17;15.39;90.88
66213;SHT31;53015;50.046;8.238;2023-10-08T06:52:43;15.40;90.27
66213;SHT31;53015;50.046;8.238;2023-10-08T06:55:08;15.47;90.66
66213;SHT31;53015;50.046;8.238;2023-10-08T06:57:34;15.67;90.22
66213;SHT31;53015;50.046;8.238;2023-10-08T06:59:59;15.85;90.05
66213;SHT31;53015;50.046;8.238;2023-10-08T07:02:25;15.90;89.30
66213;SHT31;53015;50.046;8.238;2023-10-08T07:04:52;16.02;89.15
66213;SHT31;53015;50.046;8.238;2023-10-08T07:07:17;15.97;89.42
66213;SHT31;53015;50.046;8.238;2023-10-08T07:09:43;16.02;89.43
66213;SHT31;53015;50.046;8.238;2023-10-08T07:12:08;16.06;89.76
66213;SHT31;53015;50.046;8.238;2023-10-08T07:14:34;15.91;90.01
66213;SHT31;53015;50.046;8.238;2023-10-08T07:17:00;15.81;90.28
66213;SHT31;53015;50.046;8.238;2023-10-08T07:19:25;15.87;89.43
66213;SHT31;53015;50.046;8.238;2023-10-08T07:21:52;16.04;89.21
66213;SHT31;53015;50.046;8.238;2023-10-08T07:24:18;16.20;88.90
66213;SHT31;53015;50.046;8.238;2023-10-08T07:26:44;16.23;89.36
66213;SHT31;53015;50.046;8.238;2023-10-08T07:29:09;16.22;89.51
66213;SHT31;53015;50.046;8.238;2023-10-08T07:31:36;16.20;88.91
66213;SHT31;53015;50.046;8.238;2023-10-08T07:34:03;16.25;88.94
66213;SHT31;53015;50.046;8.238;2023-10-08T07:36:29;16.25;88.70
66213;SHT31;53015;50.046;8.238;2023-10-08T07:38:56;16.40;88.54
66213;SHT31;53015;50.046;8.238;2023-10-08T07:41:21;16.63;88.36
66213;SHT31;53015;50.046;8.238;2023-10-08T07:43:47;16.53;88.71
66213;SHT31;53015;50.046;8.238;2023-10-08T07:46:13;16.54;88.49
66213;SHT31;53015;50.046;8.238;2023-10-08T07:48:38;16.67;88.08
66213;SHT31;53015;50.046;8.238;2023-10-08T07:51:04;16.87;86.52
66213;SHT31;53015;50.046;8.238;2023-10-08T07:53:29;17.05;86.46
66213;SHT31;53015;50.046;8.238;2023-10-08T07:55:56;16.96;86.72
66213;SHT31;53015;50.046;8.238;2023-10-08T07:58:22;17.11;87.08
66213;SHT31;53015;50.046;8.238;2023-10-08T08:00:47;17.14;86.15
66213;SHT31;53015;50.046;8.238;2023-10-08T08:03:13;17.19;86.26
66213;SHT31;53015;50.046;8.238;2023-10-08T08:05:38;17.30;86.18
66213;SHT31;53015;50.046;8.238;2023-10-08T08:08:04;17.28;86.75
66213;SHT31;53015;50.046;8.238;2023-10-08T08:10:29;17.38;86.68
66213;SHT31;53015;50.046;8.238;2023-10-08T08:12:56;17.54;84.90
66213;SHT31;53015;50.046;8.238;2023-10-08T08:15:22;17.50;84.95
66213;SHT31;53015;50.046;8.238;2023-10-08T08:17:47;17.70;84.08
66213;SHT31;53015;50.046;8.238;2023-10-08T08:20:13;17.81;83.94
66213;SHT31;53015;50.046;8.238;2023-10-08T08:22:38;18.00;82.17
66213;SHT31;53015;50.046;8.238;2023-10-08T08:25:04;17.93;82.52
66213;SHT31;53015;50.046;8.238;2023-10-08T08:27:30;17.97;81.95
66213;SHT31;53015;50.046;8.238;2023-10-08T08:29:57;17.87;82.94
66213;SHT31;53015;50.046;8.238;2023-10-08T08:32:23;17.93;83.50
66213;SHT31;53015;50.046;8.238;2023-10-08T08:34:49;17.88;82.08
66213;SHT31;53015;50.046;8.238;2023-10-08T08:37:14;17.94;81.99
66213;SHT31;53015;50.046;8.238;2023-10-08T08:39:40;17.90;82.74
66213;SHT31;53015;50.046;8.238;2023-10-08T08:42:05;18.02;83.44
66213;SHT31;53015;50.046;8.238;2023-10-08T08:44:31;18.15;82.44
66213;SHT31;53015;50.046;8.238;2023-10-08T08:47:00;18.35;81.14
66213;SHT31;53015;50.046;8.238;2023-10-08T08:49:26;18.41;81.15
66213;SHT31;53015;50.046;8.238;2023-10-08T08:51:52;18.45;80.69
66213;SHT31;53015;50.046;8.238;2023-10-08T08:54:18;18.56;80.45
66213;SHT31;53015;50.046;8.238;2023-10-08T08:56:44;18.57;80.28
66213;SHT31;53015;50.046;8.238;2023-10-08T08:59:09;18.69;79.93
66213;SHT31;53015;50.046;8.238;2023-10-08T09:01:35;18.69;79.35
66213;SHT31;53015;50.046;8.238;2023-10-08T09:04:03;18.70;80.15
66213;SHT31;53015;50.046;8.238;2023-10-08T09:06:29;18.66;79.98
66213;SHT31;53015;50.046;8.238;2023-10-08T09:08:54;18.64;79.84
66213;SHT31;53015;50.046;8.238;2023-10-08T09:11:20;18.67;80.00
66213;SHT31;53015;50.046;8.238;2023-10-08T09:13:45;18.63;79.20
66213;SHT31;53015;50.046;8.238;2023-10-08T09:16:13;18.67;79.31
66213;SHT31;53015;50.046;8.238;2023-10-08T09:18:41;18.73;79.44
66213;SHT31;53015;50.046;8.238;2023-10-08T09:21:10;18.79;79.62
66213;SHT31;53015;50.046;8.238;2023-10-08T09:23:39;18.96;79.54
66213;SHT31;53015;50.046;8.238;2023-10-08T09:26:04;19.03;78.79
66213;SHT31;53015;50.046;8.238;2023-10-08T09:28:31;19.07;78.14
66213;SHT31;53015;50.046;8.238;2023-10-08T09:30:57;19.19;77.47
66213;SHT31;53015;50.046;8.238;2023-10-08T09:33:22;19.35;77.24
66213;SHT31;53015;50.046;8.238;2023-10-08T09:35:48;19.32;78.07
66213;SHT31;53015;50.046;8.238;2023-10-08T09:38:15;19.41;77.90
66213;SHT31;53015;50.046;8.238;2023-10-08T09:40:41;19.56;77.24
66213;SHT31;53015;50.046;8.238;2023-10-08T09:43:06;19.59;77.21
66213;SHT31;53015;50.046;8.238;2023-10-08T09:45:34;19.53;77.33
66213;SHT31;53015;50.046;8.238;2023-10-08T09:48:01;19.56;78.63
66213;SHT31;53015;50.046;8.238;2023-10-08T09:50:28;19.63;77.13
66213;SHT31;53015;50.046;8.238;2023-10-08T09:53:00;19.63;77.42
66213;SHT31;53015;50.046;8.238;2023-10-08T09:55:27;19.67;77.41
66213;SHT31;53015;50.046;8.238;2023-10-08T09:57:54;19.65;76.67
66213;SHT31;53015;50.046;8.238;2023-10-08T10:00:20;19.81;77.25
66213;SHT31;53015;50.046;8.238;2023-10-08T10:02:46;19.84;76.19
66213;SHT31;53015;50.046;8.238;2023-10-08T10:05:12;19.94;76.62
66213;SHT31;53015;50.046;8.238;2023-10-08T10:07:38;19.83;76.67
66213;SHT31;53015;50.046;8.238;2023-10-08T10:10:08;19.98;76.87
66213;SHT31;53015;50.046;8.238;2023-10-08T10:12:51;20.11;76.63
66213;SHT31;53015;50.046;8.238;2023-10-08T10:15:19;19.89;76.77
66213;SHT31;53015;50.046;8.238;2023-10-08T10:17:47;19.90;76.64
66213;SHT31;53015;50.046;8.238;2023-10-08T10:20:12;19.84;76.28
66213;SHT31;53015;50.046;8.238;2023-10-08T10:22:38;19.84;76.85
66213;SHT31;53015;50.046;8.238;2023-10-08T10:25:05;19.73;77.34
66213;SHT31;53015;50.046;8.238;2023-10-08T10:27:30;19.67;77.79
66213;SHT31;53015;50.046;8.238;2023-10-08T10:30:03;19.63;78.10
66213;SHT31;53015;50.046;8.238;2023-10-08T10:32:28;19.58;77.58
66213;SHT31;53015;50.046;8.238;2023-10-08T10:34:54;19.51;77.84
66213;SHT31;53015;50.046;8.238;2023-10-08T10:37:19;19.39;79.00
66213;SHT31;53015;50.046;8.238;2023-10-08T10:39:52;19.25;79.21
66213;SHT31;53015;50.046;8.238;2023-10-08T10:42:18;19.24;78.51
66213;SHT31;53015;50.046;8.238;2023-10-08T10:44:43;19.18;78.93
66213;SHT31;53015;50.046;8.238;2023-10-08T10:47:10;19.25;79.64
66213;SHT31;53015;50.046;8.238;2023-10-08T10:49:36;19.46;77.79
66213;SHT31;53015;50.046;8.238;2023-10-08T10:52:01;19.55;77.81
66213;SHT31;53015;50.046;8.238;2023-10-08T10:54:27;19.62;78.35
66213;SHT31;53015;50.046;8.238;2023-10-08T10:56:53;19.58;76.53
66213;SHT31;53015;50.046;8.238;2023-10-08T10:59:18;19.69;75.64
66213;SHT31;53015;50.046;8.238;2023-10-08T11:01:47;19.76;75.21
66213;SHT31;53015;50.046;8.238;2023-10-08T11:04:14;19.86;75.21
66213;SHT31;53015;50.046;8.238;2023-10-08T11:06:39;19.93;75.46
66213;SHT31;53015;50.046;8.238;2023-10-08T11:09:05;19.89;76.01
66213;SHT31;53015;50.046;8.238;2023-10-08T11:11:30;19.96;75.94
66213;SHT31;53015;50.046;8.238;2023-10-08T11:13:57;19.98;76.22
66213;SHT31;53015;50.046;8.238;2023-10-08T11:16:23;20.11;75.91
66213;SHT31;53015;50.046;8.238;2023-10-08T11:18:50;20.32;75.13
66213;SHT31;53015;50.046;8.238;2023-10-08T11:21:17;20.34;74.51
66213;SHT31;53015;50.046;8.238;2023-10-08T11:23:43;20.56;73.96
66213;SHT31;53015;50.046;8.238;2023-10-08T11:26:09;20.66;73.87
66213;SHT31;53015;50.046;8.238;2023-10-08T11:28:36;20.94;73.23
66213;SHT31;53015;50.046;8.238;2023-10-08T11:31:03;21.04;73.75
66213;SHT31;53015;50.046;8.238;2023-10-08T11:33:29;21.11;73.43
66213;SHT31;53015;50.046;8.238;2023-10-08T11:35:56;21.01;73.45
66213;SHT31;53015;50.046;8.238;2023-10-08T11:38:23;21.07;73.92
66213;SHT31;53015;50.046;8.238;2023-10-08T11:40:48;21.14;74.42
66213;SHT31;53015;50.046;8.238;2023-10-08T11:43:14;21.15;74.95
66213;SHT31;53015;50.046;8.238;2023-10-08T11:45:40;21.04;74.07
66213;SHT31;53015;50.046;8.238;2023-10-08T11:48:06;20.80;75.50
66213;SHT31;53015;50.046;8.238;2023-10-08T11:50:31;20.77;73.50
66213;SHT31;53015;50.046;8.238;2023-10-08T11:52:58;20.79;73.84
66213;SHT31;53015;50.046;8.238;2023-10-08T11:55:25;20.76;74.44
66213;SHT31;53015;50.046;8.238;2023-10-08T11:57:50;20.68;74.88
66213;SHT31;53015;50.046;8.238;2023-10-08T12:00:16;20.59;75.82
66213;SHT31;53015;50.046;8.238;2023-10-08T12:02:42;20.48;76.54
66213;SHT31;53015;50.046;8.238;2023-10-08T12:05:08;20.48;75.76
66213;SHT31;53015;50.046;8.238;2023-10-08T12:07:33;20.62;75.46
66213;SHT31;53015;50.046;8.238;2023-10-08T12:09:59;20.63;74.92
66213;SHT31;53015;50.046;8.238;2023-10-08T12:12:26;20.49;75.41
66213;SHT31;53015;50.046;8.238;2023-10-08T12:14:51;20.38;74.88
66213;SHT31;53015;50.046;8.238;2023-10-08T12:17:17;20.29;75.86
66213;SHT31;53015;50.046;8.238;2023-10-08T12:19:42;20.25;75.43
66213;SHT31;53015;50.046;8.238;2023-10-08T12:22:08;20.14;76.27
66213;SHT31;53015;50.046;8.238;2023-10-08T12:24:33;20.25;76.23
66213;SHT31;53015;50.046;8.238;2023-10-08T12:26:59;20.25;75.92
66213;SHT31;53015;50.046;8.238;2023-10-08T12:29:25;20.39;75.84
66213;SHT31;53015;50.046;8.238;2023-10-08T12:31:51;20.42;75.52
66213;SHT31;53015;50.046;8.238;2023-10-08T12:34:17;20.53;74.38
66213;SHT31;53015;50.046;8.238;2023-10-08T12:36:42;20.52;74.87
66213;SHT31;53015;50.046;8.238;2023-10-08T12:39:08;20.69;75.36
66213;SHT31;53015;50.046;8.238;2023-10-08T12:41:33;20.73;75.44
66213;SHT31;53015;50.046;8.238;2023-10-08T12:43:59;20.94;74.93
66213;SHT31;53015;50.046;8.238;2023-10-08T12:46:26;21.03;74.69
66213;SHT31;53015;50.046;8.238;2023-10-08T12:48:52;21.17;75.44
66213;SHT31;53015;50.046;8.238;2023-10-08T12:51:18;21.21;75.23
66213;SHT31;53015;50.046;8.238;2023-10-08T12:53:44;21.23;74.15
66213;SHT31;53015;50.046;8.238;2023-10-08T12:56:09;21.27;73.67
66213;SHT31;53015;50.046;8.238;2023-10-08T12:58:36;21.27;73.09
66213;SHT31;53015;50.046;8.238;2023-10-08T13:01:02;21.49;72.39
66213;SHT31;53015;50.046;8.238;2023-10-08T13:03:29;21.61;72.56
66213;SHT31;53015;50.046;8.238;2023-10-08T13:05:54;21.79;72.15
66213;SHT31;53015;50.046;8.238;2023-10-08T13:08:20;21.82;72.21
66213;SHT31;53015;50.046;8.238;2023-10-08T13:10:45;21.66;72.09
66213;SHT31;53015;50.046;8.238;2023-10-08T13:13:11;21.48;71.96
66213;SHT31;53015;50.046;8.238;2023-10-08T13:15:37;21.47;71.95
66213;SHT31;53015;50.046;8.238;2023-10-08T13:18:02;21.49;73.08
66213;SHT31;53015;50.046;8.238;2023-10-08T13:20:29;21.58;72.53
66213;SHT31;53015;50.046;8.238;2023-10-08T13:22:55;21.62;72.42
66213;SHT31;53015;50.046;8.238;2023-10-08T13:25:20;21.59;72.28
66213;SHT31;53015;50.046;8.238;2023-10-08T13:27:46;21.75;71.85
66213;SHT31;53015;50.046;8.238;2023-10-08T13:30:12;21.86;72.27
66213;SHT31;53015;50.046;8.238;2023-10-08T13:32:37;22.10;70.47
66213;SHT31;53015;50.046;8.238;2023-10-08T13:35:03;22.38;70.06
66213;SHT31;53015;50.046;8.238;2023-10-08T13:37:31;22.55;70.83
66213;SHT31;53015;50.046;8.238;2023-10-08T13:39:57;22.52;71.21
66213;SHT31;53015;50.046;8.238;2023-10-08T13:42:22;22.44;70.19
66213;SHT31;53015;50.046;8.238;2023-10-08T13:44:48;22.43;70.08
66213;SHT31;53015;50.046;8.238;2023-10-08T13:47:13;22.47;70.78
66213;SHT31;53015;50.046;8.238;2023-10-08T13:49:39;22.58;71.33
66213;SHT31;53015;50.046;8.238;2023-10-08T13:52:04;22.62;71.48
66213;SHT31;53015;50.046;8.238;2023-10-08T13:54:31;22.62;71.92
66213;SHT31;53015;50.046;8.238;2023-10-08T13:56:57;22.79;72.55
66213;SHT31;53015;50.046;8.238;2023-10-08T13:59:23;22.65;70.12
66213;SHT31;53015;50.046;8.238;2023-10-08T14:01:48;22.54;70.15
66213;SHT31;53015;50.046;8.238;2023-10-08T14:04:14;22.40;70.65
66213;SHT31;53015;50.046;8.238;2023-10-08T14:06:39;22.47;71.62
66213;SHT31;53015;50.046;8.238;2023-10-08T14:09:05;22.40;72.64
66213;SHT31;53015;50.046;8.238;2023-10-08T14:11:32;22.37;73.03
66213;SHT31;53015;50.046;8.238;2023-10-08T14:13:57;22.58;72.20
66213;SHT31;53015;50.046;8.238;2023-10-08T14:16:23;22.62;70.68
66213;SHT31;53015;50.046;8.238;2023-10-08T14:18:49;22.68;70.98
66213;SHT31;53015;50.046;8.238;2023-10-08T14:21:14;22.76;70.97
66213;SHT31;53015;50.046;8.238;2023-10-08T14:23:40;22.92;71.18
66213;SHT31;53015;50.046;8.238;2023-10-08T14:26:06;23.07;69.28
66213;SHT31;53015;50.046;8.238;2023-10-08T14:28:33;23.22;68.37
66213;SHT31;53015;50.046;8.238;2023-10-08T14:30:59;23.03;68.91
66213;SHT31;53015;50.046;8.238;2023-10-08T14:33:24;23.16;68.75
66213;SHT31;53015;50.046;8.238;2023-10-08T14:35:50;23.10;68.55
66213;SHT31;53015;50.046;8.238;2023-10-08T14:38:15;23.04;68.70
66213;SHT31;53015;50.046;8.238;2023-10-08T14:40:41;23.14;69.22
66213;SHT31;53015;50.046;8.238;2023-10-08T14:43:06;23.19;70.14
66213;SHT31;53015;50.046;8.238;2023-10-08T14:45:34;23.17;69.57
66213;SHT31;53015;50.046;8.238;2023-10-08T14:48:00;23.41;69.10
66213;SHT31;53015;50.046;8.238;2023-10-08T14:50:27;23.44;69.24
66213;SHT31;53015;50.046;8.238;2023-10-08T14:52:53;23.46;68.30
66213;SHT31;53015;50.046;8.238;2023-10-08T14:55:19;23.51;67.17
66213;SHT31;53015;50.046;8.238;2023-10-08T14:57:44;23.55;68.67
66213;SHT31;53015;50.046;8.238;2023-10-08T15:00:10;23.54;67.65
66213;SHT31;53015;50.046;8.238;2023-10-08T15:02:37;23.55;68.22
66213;SHT31;53015;50.046;8.238;2023-10-08T15:05:04;23.28;68.28
66213;SHT31;53015;50.046;8.238;2023-10-08T15:07:29;23.13;68.40
66213;SHT31;53015;50.046;8.238;2023-10-08T15:09:55;23.03;69.04
66213;SHT31;53015;50.046;8.238;2023-10-08T15:12:20;22.91;69.91
66213;SHT31;53015;50.046;8.238;2023-10-08T15:14:46;22.92;70.45
66213;SHT31;53015;50.046;8.238;2023-10-08T15:17:11;22.84;70.56
66213;SHT31;53015;50.046;8.238;2023-10-08T15:19:38;22.88;71.56
66213;SHT31;53015;50.046;8.238;2023-10-08T15:22:03;22.92;73.06